sensor_id;sensor_type;location;lat;lon;timestamp;temperature;humidity
11229;DHT22;5671;47.936;8.716;2023-04-24T00:00:31;8.80;73.00
11229;DHT22;5671;47.936;8.716;2023-04-24T00:02:58;8.70;72.80
11229;DHT22;5671;47.936;8.716;2023-04-24T00:05:25;8.70;73.30
11229;DHT22;5671;47.936;8.716;2023-04-24T00:07:53;8.70;73.10
11229;DHT22;5671;47.936;8.716;2023-04-24T00:10:21;8.70;73.10
11229;DHT22;5671;47.936;8.716;2023-04-24T00:12:48;8.70;72.70
11229;DHT22;5671;47.936;8.716;2023-04-24T00:15:15;8.70;73.50
11229;DHT22;5671;47.936;8.716;2023-04-24T00:17:41;8.70;73.50
11229;DHT22;5671;47.936;8.716;2023-04-24T00:20:09;8.70;73.10
11229;DHT22;5671;47.936;8.716;2023-04-24T00:22:37;8.70;73.70
11229;DHT22;5671;47.936;8.716;2023-04-24T00:25:06;8.80;73.50
11229;DHT22;5671;47.936;8.716;2023-04-24T00:27:33;8.70;72.50
11229;DHT22;5671;47.936;8.716;2023-04-24T00:30:02;8.70;74.00
11229;DHT22;5671;47.936;8.716;2023-04-24T00:32:30;8.70;74.30
11229;DHT22;5671;47.936;8.716;2023-04-24T00:34:56;8.70;74.20
11229;DHT22;5671;47.936;8.716;2023-04-24T00:37:23;8.70;74.70
11229;DHT22;5671;47.936;8.716;2023-04-24T00:39:50;8.70;74.10
11229;DHT22;5671;47.936;8.716;2023-04-24T00:42:18;8.70;74.40
11229;DHT22;5671;47.936;8.716;2023-04-24T00:44:45;8.70;73.90
11229;DHT22;5671;47.936;8.716;2023-04-24T00:47:13;8.70;74.00
11229;DHT22;5671;47.936;8.716;2023-04-24T00:49:40;8.70;74.10
11229;DHT22;5671;47.936;8.716;2023-04-24T00:52:07;8.70;73.90
11229;DHT22;5671;47.936;8.716;2023-04-24T00:54:34;8.70;73.80
11229;DHT22;5671;47.936;8.716;2023-04-24T00:57:01;8.70;73.70
11229;DHT22;5671;47.936;8.716;2023-04-24T00:59:30;8.70;74.50
11229;DHT22;5671;47.936;8.716;2023-04-24T01:01:57;8.70;74.80
11229;DHT22;5671;47.936;8.716;2023-04-24T01:04:25;8.70;74.80
11229;DHT22;5671;47.936;8.716;2023-04-24T01:06:53;8.70;74.50
11229;DHT22;5671;47.936;8.716;2023-04-24T01:09:22;8.70;74.80
11229;DHT22;5671;47.936;8.716;2023-04-24T01:11:49;8.70;75.20
11229;DHT22;5671;47.936;8.716;2023-04-24T01:14:16;8.70;75.70
11229;DHT22;5671;47.936;8.716;2023-04-24T01:16:44;8.70;75.80
11229;DHT22;5671;47.936;8.716;2023-04-24T01:19:11;8.70;75.40
11229;DHT22;5671;47.936;8.716;2023-04-24T01:21:40;8.70;75.70
11229;DHT22;5671;47.936;8.716;2023-04-24T01:24:09;8.70;76.60
11229;DHT22;5671;47.936;8.716;2023-04-24T01:26:36;8.70;78.10
11229;DHT22;5671;47.936;8.716;2023-04-24T01:29:03;8.60;79.00
11229;DHT22;5671;47.936;8.716;2023-04-24T01:31:30;8.60;79.10
11229;DHT22;5671;47.936;8.716;2023-04-24T01:33:57;8.60;80.00
11229;DHT22;5671;47.936;8.716;2023-04-24T01:36:24;8.60;78.90
11229;DHT22;5671;47.936;8.716;2023-04-24T01:38:52;8.60;78.80
11229;DHT22;5671;47.936;8.716;2023-04-24T01:41:21;8.60;78.80
11229;DHT22;5671;47.936;8.716;2023-04-24T01:43:49;8.50;79.30
11229;DHT22;5671;47.936;8.716;2023-04-24T01:46:16;8.50;79.70
11229;DHT22;5671;47.936;8.716;2023-04-24T01:48:44;8.50;80.30
11229;DHT22;5671;47.936;8.716;2023-04-24T01:51:11;8.40;81.60
11229;DHT22;5671;47.936;8.716;2023-04-24T01:53:38;8.40;81.40
11229;DHT22;5671;47.936;8.716;2023-04-24T01:56:05;8.40;81.50
11229;DHT22;5671;47.936;8.716;2023-04-24T01:58:34;8.40;81.90
11229;DHT22;5671;47.936;8.716;2023-04-24T02:01:01;8.40;81.70
11229;DHT22;5671;47.936;8.716;2023-04-24T02:03:28;8.40;81.20
11229;DHT22;5671;47.936;8.716;2023-04-24T02:05:55;8.40;81.80
11229;DHT22;5671;47.936;8.716;2023-04-24T02:08:22;8.40;81.80
11229;DHT22;5671;47.936;8.716;2023-04-24T02:10:48;8.30;81.60
11229;DHT22;5671;47.936;8.716;2023-04-24T02:13:15;8.30;80.60
11229;DHT22;5671;47.936;8.716;2023-04-24T02:15:43;8.30;80.90
11229;DHT22;5671;47.936;8.716;2023-04-24T02:18:10;8.30;81.20
11229;DHT22;5671;47.936;8.716;2023-04-24T02:20:38;8.20;80.90
11229;DHT22;5671;47.936;8.716;2023-04-24T02:23:05;8.10;81.70
11229;DHT22;5671;47.936;8.716;2023-04-24T02:25:32;8.10;82.40
11229;DHT22;5671;47.936;8.716;2023-04-24T02:27:59;8.20;82.50
11229;DHT22;5671;47.936;8.716;2023-04-24T02:30:26;8.10;81.50
11229;DHT22;5671;47.936;8.716;2023-04-24T02:32:54;8.10;82.30
11229;DHT22;5671;47.936;8.716;2023-04-24T02:35:21;8.10;82.50
11229;DHT22;5671;47.936;8.716;2023-04-24T02:37:48;8.10;82.40
11229;DHT22;5671;47.936;8.716;2023-04-24T02:40:15;8.10;82.80
11229;DHT22;5671;47.936;8.716;2023-04-24T02:42:42;8.10;82.40
11229;DHT22;5671;47.936;8.716;2023-04-24T02:45:09;8.10;82.80
11229;DHT22;5671;47.936;8.716;2023-04-24T02:47:36;8.10;83.30
11229;DHT22;5671;47.936;8.716;2023-04-24T02:50:06;8.10;83.30
11229;DHT22;5671;47.936;8.716;2023-04-24T02:52:33;8.10;82.60
11229;DHT22;5671;47.936;8.716;2023-04-24T02:55:00;8.10;83.40
11229;DHT22;5671;47.936;8.716;2023-04-24T02:57:27;8.10;83.50
11229;DHT22;5671;47.936;8.716;2023-04-24T02:59:54;8.10;83.20
11229;DHT22;5671;47.936;8.716;2023-04-24T03:02:20;8.10;83.20
11229;DHT22;5671;47.936;8.716;2023-04-24T03:04:47;8.00;83.60
11229;DHT22;5671;47.936;8.716;2023-04-24T03:07:15;8.00;83.50
11229;DHT22;5671;47.936;8.716;2023-04-24T03:09:42;8.00;83.20
11229;DHT22;5671;47.936;8.716;2023-04-24T03:12:09;8.00;83.10
11229;DHT22;5671;47.936;8.716;2023-04-24T03:14:36;8.00;82.90
11229;DHT22;5671;47.936;8.716;2023-04-24T03:17:03;8.00;83.10
11229;DHT22;5671;47.936;8.716;2023-04-24T03:19:29;8.00;83.30
11229;DHT22;5671;47.936;8.716;2023-04-24T03:21:56;8.00;82.20
11229;DHT22;5671;47.936;8.716;2023-04-24T03:24:25;8.00;82.50
11229;DHT22;5671;47.936;8.716;2023-04-24T03:26:53;8.00;82.90
11229;DHT22;5671;47.936;8.716;2023-04-24T03:29:22;8.00;82.50
11229;DHT22;5671;47.936;8.716;2023-04-24T03:31:49;8.00;82.30
11229;DHT22;5671;47.936;8.716;2023-04-24T03:34:15;8.00;83.30
11229;DHT22;5671;47.936;8.716;2023-04-24T03:36:42;7.90;83.60
11229;DHT22;5671;47.936;8.716;2023-04-24T03:39:09;7.90;84.10
11229;DHT22;5671;47.936;8.716;2023-04-24T03:41:38;7.90;84.50
11229;DHT22;5671;47.936;8.716;2023-04-24T03:44:04;7.90;84.00
11229;DHT22;5671;47.936;8.716;2023-04-24T03:46:31;7.90;84.70
11229;DHT22;5671;47.936;8.716;2023-04-24T03:48:58;7.90;84.30
11229;DHT22;5671;47.936;8.716;2023-04-24T03:51:25;7.80;84.60
11229;DHT22;5671;47.936;8.716;2023-04-24T03:53:53;7.80;84.30
11229;DHT22;5671;47.936;8.716;2023-04-24T03:56:20;7.80;84.50
11229;DHT22;5671;47.936;8.716;2023-04-24T03:58:48;7.80;84.00
11229;DHT22;5671;47.936;8.716;2023-04-24T04:01:15;7.70;83.90
11229;DHT22;5671;47.936;8.716;2023-04-24T04:03:42;7.70;84.10
11229;DHT22;5671;47.936;8.716;2023-04-24T04:06:09;7.70;84.20
11229;DHT22;5671;47.936;8.716;2023-04-24T04:08:38;7.70;84.20
11229;DHT22;5671;47.936;8.716;2023-04-24T04:11:05;7.60;84.60
11229;DHT22;5671;47.936;8.716;2023-04-24T04:13:32;7.60;84.00
11229;DHT22;5671;47.936;8.716;2023-04-24T04:16:00;7.60;83.70
11229;DHT22;5671;47.936;8.716;2023-04-24T04:18:27;7.60;83.40
11229;DHT22;5671;47.936;8.716;2023-04-24T04:20:53;7.60;83.10
11229;DHT22;5671;47.936;8.716;2023-04-24T04:23:20;7.60;84.10
11229;DHT22;5671;47.936;8.716;2023-04-24T04:25:47;7.60;83.90
11229;DHT22;5671;47.936;8.716;2023-04-24T04:28:15;7.50;84.00
11229;DHT22;5671;47.936;8.716;2023-04-24T04:30:45;7.50;83.50
11229;DHT22;5671;47.936;8.716;2023-04-24T04:33:13;7.40;84.00
11229;DHT22;5671;47.936;8.716;2023-04-24T04:35:41;7.40;83.80
11229;DHT22;5671;47.936;8.716;2023-04-24T04:38:08;7.40;84.30
11229;DHT22;5671;47.936;8.716;2023-04-24T04:40:36;7.80;83.30
11229;DHT22;5671;47.936;8.716;2023-04-24T04:43:03;7.40;84.80
11229;DHT22;5671;47.936;8.716;2023-04-24T04:45:29;7.30;84.70
11229;DHT22;5671;47.936;8.716;2023-04-24T04:47:58;7.40;85.10
11229;DHT22;5671;47.936;8.716;2023-04-24T04:50:27;7.30;85.50
11229;DHT22;5671;47.936;8.716;2023-04-24T04:52:54;7.30;85.40
11229;DHT22;5671;47.936;8.716;2023-04-24T04:55:21;7.30;85.70
11229;DHT22;5671;47.936;8.716;2023-04-24T04:57:48;7.30;85.50
11229;DHT22;5671;47.936;8.716;2023-04-24T05:00:15;7.30;85.50
11229;DHT22;5671;47.936;8.716;2023-04-24T05:02:42;7.30;85.50
11229;DHT22;5671;47.936;8.716;2023-04-24T05:05:09;7.30;85.50
11229;DHT22;5671;47.936;8.716;2023-04-24T05:07:37;7.30;84.60
11229;DHT22;5671;47.936;8.716;2023-04-24T05:10:05;7.30;85.20
11229;DHT22;5671;47.936;8.716;2023-04-24T05:12:32;7.40;84.50
11229;DHT22;5671;47.936;8.716;2023-04-24T05:14:59;7.40;85.20
11229;DHT22;5671;47.936;8.716;2023-04-24T05:17:26;7.30;84.90
11229;DHT22;5671;47.936;8.716;2023-04-24T05:19:52;7.30;84.40
11229;DHT22;5671;47.936;8.716;2023-04-24T05:22:20;7.40;84.50
11229;DHT22;5671;47.936;8.716;2023-04-24T05:24:48;7.30;84.20
11229;DHT22;5671;47.936;8.716;2023-04-24T05:27:15;7.40;84.70
11229;DHT22;5671;47.936;8.716;2023-04-24T05:29:42;7.30;83.30
11229;DHT22;5671;47.936;8.716;2023-04-24T05:32:09;7.40;82.60
11229;DHT22;5671;47.936;8.716;2023-04-24T05:34:36;7.30;81.40
11229;DHT22;5671;47.936;8.716;2023-04-24T05:37:02;7.30;81.70
11229;DHT22;5671;47.936;8.716;2023-04-24T05:39:33;7.40;80.80
11229;DHT22;5671;47.936;8.716;2023-04-24T05:42:02;7.30;81.10
11229;DHT22;5671;47.936;8.716;2023-04-24T05:44:30;7.40;81.00
11229;DHT22;5671;47.936;8.716;2023-04-24T05:46:56;7.40;81.20
11229;DHT22;5671;47.936;8.716;2023-04-24T05:49:23;7.40;81.00
11229;DHT22;5671;47.936;8.716;2023-04-24T05:51:50;7.50;80.10
11229;DHT22;5671;47.936;8.716;2023-04-24T05:54:17;7.50;80.20
11229;DHT22;5671;47.936;8.716;2023-04-24T05:56:44;7.50;80.10
11229;DHT22;5671;47.936;8.716;2023-04-24T05:59:12;7.60;79.40
11229;DHT22;5671;47.936;8.716;2023-04-24T06:01:39;7.60;78.40
11229;DHT22;5671;47.936;8.716;2023-04-24T06:04:06;7.70;79.00
11229;DHT22;5671;47.936;8.716;2023-04-24T06:06:33;7.80;76.20
11229;DHT22;5671;47.936;8.716;2023-04-24T06:09:01;7.90;76.60
11229;DHT22;5671;47.936;8.716;2023-04-24T06:11:28;8.00;77.40
11229;DHT22;5671;47.936;8.716;2023-04-24T06:13:55;8.00;76.80
11229;DHT22;5671;47.936;8.716;2023-04-24T06:16:23;8.20;76.10
11229;DHT22;5671;47.936;8.716;2023-04-24T06:18:50;8.20;73.30
11229;DHT22;5671;47.936;8.716;2023-04-24T06:21:17;8.30;73.60
11229;DHT22;5671;47.936;8.716;2023-04-24T06:23:43;8.40;73.10
11229;DHT22;5671;47.936;8.716;2023-04-24T06:26:11;8.50;72.20
11229;DHT22;5671;47.936;8.716;2023-04-24T06:28:38;8.50;72.30
11229;DHT22;5671;47.936;8.716;2023-04-24T06:31:05;8.60;71.60
11229;DHT22;5671;47.936;8.716;2023-04-24T06:33:33;8.70;71.70
11229;DHT22;5671;47.936;8.716;2023-04-24T06:36:00;8.90;70.60
11229;DHT22;5671;47.936;8.716;2023-04-24T06:38:27;9.00;70.40
11229;DHT22;5671;47.936;8.716;2023-04-24T06:40:55;9.10;69.10
11229;DHT22;5671;47.936;8.716;2023-04-24T06:43:24;9.30;68.00
11229;DHT22;5671;47.936;8.716;2023-04-24T06:45:51;9.30;67.30
11229;DHT22;5671;47.936;8.716;2023-04-24T06:48:18;9.40;66.90
11229;DHT22;5671;47.936;8.716;2023-04-24T06:50:46;9.50;67.10
11229;DHT22;5671;47.936;8.716;2023-04-24T06:53:13;9.40;66.50
11229;DHT22;5671;47.936;8.716;2023-04-24T06:55:40;9.90;66.20
11229;DHT22;5671;47.936;8.716;2023-04-24T06:58:08;9.50;67.30
11229;DHT22;5671;47.936;8.716;2023-04-24T07:00:35;9.50;67.50
11229;DHT22;5671;47.936;8.716;2023-04-24T07:03:02;9.50;69.60
11229;DHT22;5671;47.936;8.716;2023-04-24T07:05:30;9.40;67.50
11229;DHT22;5671;47.936;8.716;2023-04-24T07:08:00;9.30;66.90
11229;DHT22;5671;47.936;8.716;2023-04-24T07:10:27;9.80;63.70
11229;DHT22;5671;47.936;8.716;2023-04-24T07:12:54;9.40;65.30
11229;DHT22;5671;47.936;8.716;2023-04-24T07:15:21;9.30;64.20
11229;DHT22;5671;47.936;8.716;2023-04-24T07:17:51;9.20;64.50
11229;DHT22;5671;47.936;8.716;2023-04-24T07:20:18;9.10;65.20
11229;DHT22;5671;47.936;8.716;2023-04-24T07:22:45;9.10;64.60
11229;DHT22;5671;47.936;8.716;2023-04-24T07:25:13;9.00;65.30
11229;DHT22;5671;47.936;8.716;2023-04-24T07:27:39;9.10;65.10
11229;DHT22;5671;47.936;8.716;2023-04-24T07:30:07;8.80;64.50
11229;DHT22;5671;47.936;8.716;2023-04-24T07:32:34;8.80;65.90
11229;DHT22;5671;47.936;8.716;2023-04-24T07:35:01;8.70;64.10
11229;DHT22;5671;47.936;8.716;2023-04-24T07:37:29;8.70;64.60
11229;DHT22;5671;47.936;8.716;2023-04-24T07:39:55;8.50;66.00
11229;DHT22;5671;47.936;8.716;2023-04-24T07:42:24;8.50;67.00
11229;DHT22;5671;47.936;8.716;2023-04-24T07:44:50;8.40;66.80
11229;DHT22;5671;47.936;8.716;2023-04-24T07:47:17;8.40;68.70
11229;DHT22;5671;47.936;8.716;2023-04-24T07:49:44;8.40;66.50
11229;DHT22;5671;47.936;8.716;2023-04-24T07:52:11;8.40;68.30
11229;DHT22;5671;47.936;8.716;2023-04-24T07:54:37;8.50;67.00
11229;DHT22;5671;47.936;8.716;2023-04-24T07:57:04;8.60;65.00
11229;DHT22;5671;47.936;8.716;2023-04-24T07:59:33;8.90;67.00
11229;DHT22;5671;47.936;8.716;2023-04-24T08:02:00;8.90;67.70
11229;DHT22;5671;47.936;8.716;2023-04-24T08:04:27;8.90;65.80
11229;DHT22;5671;47.936;8.716;2023-04-24T08:06:54;9.10;67.00
11229;DHT22;5671;47.936;8.716;2023-04-24T08:09:21;9.20;64.50
11229;DHT22;5671;47.936;8.716;2023-04-24T08:11:48;9.30;62.80
11229;DHT22;5671;47.936;8.716;2023-04-24T08:14:15;9.30;61.80
11229;DHT22;5671;47.936;8.716;2023-04-24T08:16:43;9.30;61.50
11229;DHT22;5671;47.936;8.716;2023-04-24T08:19:10;9.50;62.20
11229;DHT22;5671;47.936;8.716;2023-04-24T08:21:36;9.60;60.10
11229;DHT22;5671;47.936;8.716;2023-04-24T08:24:03;9.70;58.70
11229;DHT22;5671;47.936;8.716;2023-04-24T08:26:33;9.80;56.20
11229;DHT22;5671;47.936;8.716;2023-04-24T08:29:00;9.90;55.40
11229;DHT22;5671;47.936;8.716;2023-04-24T08:31:26;10.20;56.60
11229;DHT22;5671;47.936;8.716;2023-04-24T08:33:55;10.10;56.90
11229;DHT22;5671;47.936;8.716;2023-04-24T08:36:21;10.30;54.80
11229;DHT22;5671;47.936;8.716;2023-04-24T08:38:48;10.10;53.80
11229;DHT22;5671;47.936;8.716;2023-04-24T08:41:15;10.10;53.80
11229;DHT22;5671;47.936;8.716;2023-04-24T08:43:45;10.70;50.00
11229;DHT22;5671;47.936;8.716;2023-04-24T08:46:13;10.20;51.40
11229;DHT22;5671;47.936;8.716;2023-04-24T08:48:42;10.80;50.40
11229;DHT22;5671;47.936;8.716;2023-04-24T08:51:10;10.20;49.60
11229;DHT22;5671;47.936;8.716;2023-04-24T08:53:38;10.10;51.70
11229;DHT22;5671;47.936;8.716;2023-04-24T08:56:05;10.70;50.70
11229;DHT22;5671;47.936;8.716;2023-04-24T08:58:33;10.30;50.20
11229;DHT22;5671;47.936;8.716;2023-04-24T09:01:00;10.20;50.40
11229;DHT22;5671;47.936;8.716;2023-04-24T09:03:28;10.10;50.30
11229;DHT22;5671;47.936;8.716;2023-04-24T09:05:55;10.20;50.10
11229;DHT22;5671;47.936;8.716;2023-04-24T09:08:25;10.10;50.90
11229;DHT22;5671;47.936;8.716;2023-04-24T09:10:52;10.20;50.80
11229;DHT22;5671;47.936;8.716;2023-04-24T09:13:19;10.20;50.80
11229;DHT22;5671;47.936;8.716;2023-04-24T09:15:46;10.00;48.10
11229;DHT22;5671;47.936;8.716;2023-04-24T09:18:13;10.10;51.00
11229;DHT22;5671;47.936;8.716;2023-04-24T09:20:58;10.00;48.20
11229;DHT22;5671;47.936;8.716;2023-04-24T09:23:28;10.30;48.50
11229;DHT22;5671;47.936;8.716;2023-04-24T09:25:55;10.40;49.40
11229;DHT22;5671;47.936;8.716;2023-04-24T09:28:25;10.40;47.60
11229;DHT22;5671;47.936;8.716;2023-04-24T09:31:02;10.10;47.60
11229;DHT22;5671;47.936;8.716;2023-04-24T09:33:29;10.10;49.30
11229;DHT22;5671;47.936;8.716;2023-04-24T09:35:56;10.00;49.70
11229;DHT22;5671;47.936;8.716;2023-04-24T09:38:32;9.80;51.40
11229;DHT22;5671;47.936;8.716;2023-04-24T09:41:00;9.80;50.70
11229;DHT22;5671;47.936;8.716;2023-04-24T09:43:28;9.70;50.60
11229;DHT22;5671;47.936;8.716;2023-04-24T09:45:56;9.60;50.30
11229;DHT22;5671;47.936;8.716;2023-04-24T09:48:34;9.70;50.50
11229;DHT22;5671;47.936;8.716;2023-04-24T09:51:03;9.70;52.50
11229;DHT22;5671;47.936;8.716;2023-04-24T09:53:33;9.70;51.00
11229;DHT22;5671;47.936;8.716;2023-04-24T09:56:03;9.70;52.50
11229;DHT22;5671;47.936;8.716;2023-04-24T09:58:29;9.70;51.20
11229;DHT22;5671;47.936;8.716;2023-04-24T10:00:56;9.70;52.80
11229;DHT22;5671;47.936;8.716;2023-04-24T10:03:24;9.80;53.40
11229;DHT22;5671;47.936;8.716;2023-04-24T10:05:53;9.80;52.10
11229;DHT22;5671;47.936;8.716;2023-04-24T10:08:20;9.80;52.20
11229;DHT22;5671;47.936;8.716;2023-04-24T10:10:49;9.80;53.40
11229;DHT22;5671;47.936;8.716;2023-04-24T10:13:16;9.60;50.40
11229;DHT22;5671;47.936;8.716;2023-04-24T10:15:43;9.50;51.40
11229;DHT22;5671;47.936;8.716;2023-04-24T10:18:11;9.40;51.90
11229;DHT22;5671;47.936;8.716;2023-04-24T10:20:39;9.40;53.10
11229;DHT22;5671;47.936;8.716;2023-04-24T10:23:06;9.40;52.60
11229;DHT22;5671;47.936;8.716;2023-04-24T10:25:34;9.50;54.90
11229;DHT22;5671;47.936;8.716;2023-04-24T10:28:02;9.60;54.00
11229;DHT22;5671;47.936;8.716;2023-04-24T10:30:30;9.60;53.70
11229;DHT22;5671;47.936;8.716;2023-04-24T10:33:00;9.60;52.50
11229;DHT22;5671;47.936;8.716;2023-04-24T10:35:30;9.50;53.60
11229;DHT22;5671;47.936;8.716;2023-04-24T10:37:59;9.70;52.90
11229;DHT22;5671;47.936;8.716;2023-04-24T10:40:30;9.80;54.20
11229;DHT22;5671;47.936;8.716;2023-04-24T10:42:58;9.70;51.70
11229;DHT22;5671;47.936;8.716;2023-04-24T10:45:28;9.80;53.10
11229;DHT22;5671;47.936;8.716;2023-04-24T10:47:58;9.80;52.30
11229;DHT22;5671;47.936;8.716;2023-04-24T10:50:27;9.70;50.90
11229;DHT22;5671;47.936;8.716;2023-04-24T10:53:05;9.70;53.30
11229;DHT22;5671;47.936;8.716;2023-04-24T10:55:44;9.60;53.10
11229;DHT22;5671;47.936;8.716;2023-04-24T10:58:11;9.50;53.40
11229;DHT22;5671;47.936;8.716;2023-04-24T11:00:40;9.50;53.90
11229;DHT22;5671;47.936;8.716;2023-04-24T11:03:23;9.60;54.40
11229;DHT22;5671;47.936;8.716;2023-04-24T11:06:01;9.90;53.70
11229;DHT22;5671;47.936;8.716;2023-04-24T11:08:32;9.90;53.80
11229;DHT22;5671;47.936;8.716;2023-04-24T11:11:08;10.60;53.10
11229;DHT22;5671;47.936;8.716;2023-04-24T11:14:01;10.80;52.10
11229;DHT22;5671;47.936;8.716;2023-04-24T11:16:30;11.30;50.30
11229;DHT22;5671;47.936;8.716;2023-04-24T11:19:03;11.60;49.60
11229;DHT22;5671;47.936;8.716;2023-04-24T11:21:40;12.40;49.80
11229;DHT22;5671;47.936;8.716;2023-04-24T11:24:27;13.00;47.30
11229;DHT22;5671;47.936;8.716;2023-04-24T11:26:55;13.30;45.30
11229;DHT22;5671;47.936;8.716;2023-04-24T11:29:38;13.60;46.40
11229;DHT22;5671;47.936;8.716;2023-04-24T11:32:22;13.80;44.00
11229;DHT22;5671;47.936;8.716;2023-04-24T11:34:51;13.90;43.90
11229;DHT22;5671;47.936;8.716;2023-04-24T11:37:18;14.20;43.90
11229;DHT22;5671;47.936;8.716;2023-04-24T11:39:44;14.30;44.50
11229;DHT22;5671;47.936;8.716;2023-04-24T11:42:14;14.90;42.70
11229;DHT22;5671;47.936;8.716;2023-04-24T11:44:42;14.90;42.20
11229;DHT22;5671;47.936;8.716;2023-04-24T11:47:09;14.40;40.80
11229;DHT22;5671;47.936;8.716;2023-04-24T11:49:38;14.10;41.60
11229;DHT22;5671;47.936;8.716;2023-04-24T11:52:05;13.90;42.20
11229;DHT22;5671;47.936;8.716;2023-04-24T11:54:32;13.90;43.00
11229;DHT22;5671;47.936;8.716;2023-04-24T11:56:59;14.50;45.60
11229;DHT22;5671;47.936;8.716;2023-04-24T11:59:25;14.90;41.10
11229;DHT22;5671;47.936;8.716;2023-04-24T12:01:52;15.10;42.00
11229;DHT22;5671;47.936;8.716;2023-04-24T12:04:19;15.00;40.90
11229;DHT22;5671;47.936;8.716;2023-04-24T12:07:03;14.50;39.90
11229;DHT22;5671;47.936;8.716;2023-04-24T12:09:40;13.90;40.30
11229;DHT22;5671;47.936;8.716;2023-04-24T12:12:08;13.80;41.10
11229;DHT22;5671;47.936;8.716;2023-04-24T12:14:43;13.30;41.60
11229;DHT22;5671;47.936;8.716;2023-04-24T12:17:09;13.00;43.40
11229;DHT22;5671;47.936;8.716;2023-04-24T12:19:36;12.80;43.40
11229;DHT22;5671;47.936;8.716;2023-04-24T12:22:05;12.50;44.00
11229;DHT22;5671;47.936;8.716;2023-04-24T12:24:32;12.40;44.70
11229;DHT22;5671;47.936;8.716;2023-04-24T12:26:59;12.40;43.80
11229;DHT22;5671;47.936;8.716;2023-04-24T12:29:26;13.10;44.80
11229;DHT22;5671;47.936;8.716;2023-04-24T12:31:54;13.50;43.60
11229;DHT22;5671;47.936;8.716;2023-04-24T12:34:22;13.60;43.80
11229;DHT22;5671;47.936;8.716;2023-04-24T12:36:50;13.60;43.50
11229;DHT22;5671;47.936;8.716;2023-04-24T12:39:19;13.50;43.80
11229;DHT22;5671;47.936;8.716;2023-04-24T12:41:55;13.20;44.30
11229;DHT22;5671;47.936;8.716;2023-04-24T12:44:30;13.10;44.00
11229;DHT22;5671;47.936;8.716;2023-04-24T12:46:59;13.80;44.80
11229;DHT22;5671;47.936;8.716;2023-04-24T12:49:26;14.40;44.30
11229;DHT22;5671;47.936;8.716;2023-04-24T12:51:53;15.20;46.40
11229;DHT22;5671;47.936;8.716;2023-04-24T12:54:22;16.00;42.20
11229;DHT22;5671;47.936;8.716;2023-04-24T12:56:49;16.50;39.30
11229;DHT22;5671;47.936;8.716;2023-04-24T12:59:15;16.50;40.00
11229;DHT22;5671;47.936;8.716;2023-04-24T13:01:42;16.30;38.30
11229;DHT22;5671;47.936;8.716;2023-04-24T13:04:09;16.50;39.40
11229;DHT22;5671;47.936;8.716;2023-04-24T13:06:36;16.40;40.70
11229;DHT22;5671;47.936;8.716;2023-04-24T13:09:03;16.50;39.60
11229;DHT22;5671;47.936;8.716;2023-04-24T13:11:31;16.50;40.10
11229;DHT22;5671;47.936;8.716;2023-04-24T13:13:58;16.50;40.60
11229;DHT22;5671;47.936;8.716;2023-04-24T13:16:25;16.80;40.00
11229;DHT22;5671;47.936;8.716;2023-04-24T13:18:52;16.30;38.40
11229;DHT22;5671;47.936;8.716;2023-04-24T13:21:18;16.20;38.30
11229;DHT22;5671;47.936;8.716;2023-04-24T13:23:45;15.90;39.40
11229;DHT22;5671;47.936;8.716;2023-04-24T13:26:12;15.20;39.80
11229;DHT22;5671;47.936;8.716;2023-04-24T13:28:40;15.00;40.30
11229;DHT22;5671;47.936;8.716;2023-04-24T13:31:07;14.80;40.00
11229;DHT22;5671;47.936;8.716;2023-04-24T13:33:34;14.50;41.10
11229;DHT22;5671;47.936;8.716;2023-04-24T13:36:00;14.70;40.00
11229;DHT22;5671;47.936;8.716;2023-04-24T13:38:27;15.00;42.50
11229;DHT22;5671;47.936;8.716;2023-04-24T13:40:54;15.00;40.60
11229;DHT22;5671;47.936;8.716;2023-04-24T13:43:21;15.40;41.10
11229;DHT22;5671;47.936;8.716;2023-04-24T13:45:49;14.80;41.10
11229;DHT22;5671;47.936;8.716;2023-04-24T13:48:16;14.90;40.30
11229;DHT22;5671;47.936;8.716;2023-04-24T13:50:43;14.80;40.70
11229;DHT22;5671;47.936;8.716;2023-04-24T13:53:13;14.80;42.80
11229;DHT22;5671;47.936;8.716;2023-04-24T13:55:40;14.40;42.00
11229;DHT22;5671;47.936;8.716;2023-04-24T13:58:07;14.00;42.20
11229;DHT22;5671;47.936;8.716;2023-04-24T14:00:34;13.70;42.10
11229;DHT22;5671;47.936;8.716;2023-04-24T14:03:02;13.20;42.40
11229;DHT22;5671;47.936;8.716;2023-04-24T14:05:29;12.80;43.30
11229;DHT22;5671;47.936;8.716;2023-04-24T14:07:55;12.80;44.50
11229;DHT22;5671;47.936;8.716;2023-04-24T14:10:22;12.60;45.10
11229;DHT22;5671;47.936;8.716;2023-04-24T14:12:49;12.40;46.70
11229;DHT22;5671;47.936;8.716;2023-04-24T14:15:17;12.00;45.90
11229;DHT22;5671;47.936;8.716;2023-04-24T14:17:44;12.10;47.00
11229;DHT22;5671;47.936;8.716;2023-04-24T14:20:12;11.70;46.10
11229;DHT22;5671;47.936;8.716;2023-04-24T14:22:39;11.60;47.50
11229;DHT22;5671;47.936;8.716;2023-04-24T14:25:07;11.50;47.40
11229;DHT22;5671;47.936;8.716;2023-04-24T14:27:34;11.30;47.70
11229;DHT22;5671;47.936;8.716;2023-04-24T14:30:01;11.30;48.20
11229;DHT22;5671;47.936;8.716;2023-04-24T14:32:29;11.10;49.00
11229;DHT22;5671;47.936;8.716;2023-04-24T14:34:56;11.10;49.10
11229;DHT22;5671;47.936;8.716;2023-04-24T14:37:24;11.00;49.40
11229;DHT22;5671;47.936;8.716;2023-04-24T14:39:51;10.90;49.30
11229;DHT22;5671;47.936;8.716;2023-04-24T14:42:18;10.90;49.50
11229;DHT22;5671;47.936;8.716;2023-04-24T14:44:45;10.80;49.20
11229;DHT22;5671;47.936;8.716;2023-04-24T14:47:11;10.70;50.00
11229;DHT22;5671;47.936;8.716;2023-04-24T14:49:38;10.60;50.80
11229;DHT22;5671;47.936;8.716;2023-04-24T14:52:05;10.50;50.40
11229;DHT22;5671;47.936;8.716;2023-04-24T14:54:33;10.50;50.50
11229;DHT22;5671;47.936;8.716;2023-04-24T14:57:00;10.60;52.20
11229;DHT22;5671;47.936;8.716;2023-04-24T14:59:28;10.70;51.80
11229;DHT22;5671;47.936;8.716;2023-04-24T15:01:55;10.80;51.80
11229;DHT22;5671;47.936;8.716;2023-04-24T15:04:23;10.80;51.40
11229;DHT22;5671;47.936;8.716;2023-04-24T15:06:50;11.00;50.90
11229;DHT22;5671;47.936;8.716;2023-04-24T15:09:19;10.90;51.00
11229;DHT22;5671;47.936;8.716;2023-04-24T15:11:47;11.10;51.00
11229;DHT22;5671;47.936;8.716;2023-04-24T15:14:14;11.10;50.80
11229;DHT22;5671;47.936;8.716;2023-04-24T15:16:41;11.10;51.30
11229;DHT22;5671;47.936;8.716;2023-04-24T15:19:08;11.00;51.60
11229;DHT22;5671;47.936;8.716;2023-04-24T15:21:35;11.00;51.80
11229;DHT22;5671;47.936;8.716;2023-04-24T15:24:02;11.00;51.70
11229;DHT22;5671;47.936;8.716;2023-04-24T15:26:29;11.10;51.40
11229;DHT22;5671;47.936;8.716;2023-04-24T15:28:57;11.00;50.60
11229;DHT22;5671;47.936;8.716;2023-04-24T15:31:24;11.60;50.20
11229;DHT22;5671;47.936;8.716;2023-04-24T15:33:51;11.40;49.20
11229;DHT22;5671;47.936;8.716;2023-04-24T15:36:18;11.30;49.40
11229;DHT22;5671;47.936;8.716;2023-04-24T15:38:46;11.20;49.90
11229;DHT22;5671;47.936;8.716;2023-04-24T15:41:13;11.10;50.40
11229;DHT22;5671;47.936;8.716;2023-04-24T15:43:40;10.90;51.80
11229;DHT22;5671;47.936;8.716;2023-04-24T15:46:10;10.90;52.20
11229;DHT22;5671;47.936;8.716;2023-04-24T15:48:36;10.90;52.50
11229;DHT22;5671;47.936;8.716;2023-04-24T15:51:06;10.80;52.80
11229;DHT22;5671;47.936;8.716;2023-04-24T15:53:33;10.70;53.50
11229;DHT22;5671;47.936;8.716;2023-04-24T15:56:00;10.80;53.10
11229;DHT22;5671;47.936;8.716;2023-04-24T15:58:27;10.80;52.20